Time;durP1;ratioP1;P1;durP2;ratioP2;P2;SDS_P1;SDS_P2;PMS_P1;PMS_P2;Temp;Humidity;BMP_temperature;BMP_pressure;BME280_temperature;BME280_humidity;BME280_pressure;Samples;Min_cycle;Max_cycle;Signal;HPM_P1;HPM_P2
2023/01/19 00:01:11;;;;;;;270.35;70.63;;;;;;;;;;5116885;28;20200;-74
2023/01/19 00:03:38;;;;;;;275.10;79.50;;;;;;;;;;5117190;28;20212;-74
2023/01/19 00:06:06;;;;;;;264.20;73.88;;;;;;;;;;5110854;28;20194;-74
2023/01/19 00:08:34;;;;;;;257.83;72.63;;;;;;;;;;5095941;28;20458;-74
2023/01/19 00:11:03;;;;;;;266.80;73.00;;;;;;;;;;5096614;28;20493;-74
2023/01/19 00:13:32;;;;;;;260.08;73.35;;;;;;;;;;5096387;28;20202;-73
2023/01/19 00:15:59;;;;;;;265.02;73.57;;;;;;;;;;5095640;28;20233;-74
2023/01/19 00:18:27;;;;;;;275.70;73.18;;;;;;;;;;5096863;28;20520;-73
2023/01/19 00:20:54;;;;;;;281.63;79.60;;;;;;;;;;5096152;28;20574;-73
2023/01/19 00:23:22;;;;;;;284.95;82.68;;;;;;;;;;5095753;28;20256;-74
2023/01/19 00:25:50;;;;;;;301.55;87.43;;;;;;;;;;5096463;28;20209;-74
2023/01/19 00:28:23;;;;;;;301.42;82.55;;;;;;;;;;5097946;28;20274;-74
2023/01/19 00:30:52;;;;;;;287.80;80.78;;;;;;;;;;5115560;28;20240;-73
2023/01/19 00:33:20;;;;;;;301.10;77.15;;;;;;;;;;5116190;28;20732;-74
2023/01/19 00:35:51;;;;;;;313.10;81.13;;;;;;;;;;5106163;28;20483;-74
2023/01/19 00:38:20;;;;;;;311.15;83.30;;;;;;;;;;5117005;28;20261;-73
2023/01/19 00:40:47;;;;;;;314.25;84.75;;;;;;;;;;5115635;28;20232;-73
2023/01/19 00:43:14;;;;;;;221.50;60.63;;;;;;;;;;5115181;28;20568;-73
2023/01/19 00:45:42;;;;;;;287.27;74.35;;;;;;;;;;5116077;28;20193;-72
2023/01/19 00:48:11;;;;;;;271.85;65.88;;;;;;;;;;5115368;28;20743;-72
2023/01/19 00:50:38;;;;;;;276.00;68.97;;;;;;;;;;5116262;28;20775;-73
2023/01/19 00:53:06;;;;;;;300.13;99.95;;;;;;;;;;5116509;28;20207;-73
2023/01/19 00:55:34;;;;;;;262.88;64.75;;;;;;;;;;5116213;28;20489;-73
2023/01/19 00:58:02;;;;;;;267.65;67.15;;;;;;;;;;5116799;28;20197;-71
2023/01/19 01:00:30;;;;;;;272.00;67.88;;;;;;;;;;5115574;28;20250;-73
2023/01/19 01:02:57;;;;;;;274.80;69.40;;;;;;;;;;5114975;28;20221;-73
2023/01/19 01:05:26;;;;;;;270.40;69.90;;;;;;;;;;5116594;28;20201;-73
2023/01/19 01:07:54;;;;;;;276.02;70.50;;;;;;;;;;5116294;28;20230;-73
2023/01/19 01:10:26;;;;;;;262.15;70.88;;;;;;;;;;5113533;28;20208;-73
2023/01/19 01:12:54;;;;;;;282.85;81.10;;;;;;;;;;5116171;28;20470;-73
2023/01/19 01:15:22;;;;;;;286.88;85.63;;;;;;;;;;5115775;28;20212;-72
2023/01/19 01:17:51;;;;;;;301.85;80.88;;;;;;;;;;5115730;28;20212;-72
2023/01/19 01:20:20;;;;;;;299.67;82.82;;;;;;;;;;5117812;28;20209;-72
2023/01/19 01:22:50;;;;;;;293.58;82.10;;;;;;;;;;5114986;28;20224;-72
2023/01/19 01:25:21;;;;;;;296.48;89.65;;;;;;;;;;5099987;28;20220;-72
2023/01/19 01:27:48;;;;;;;296.63;83.90;;;;;;;;;;5100854;28;20472;-72
2023/01/19 01:30:20;;;;;;;301.05;81.88;;;;;;;;;;5105326;28;20683;-72
2023/01/19 01:32:48;;;;;;;298.40;86.60;;;;;;;;;;5119893;28;20228;-72
2023/01/19 01:35:16;;;;;;;284.70;80.57;;;;;;;;;;5119688;28;20236;-72
2023/01/19 01:37:44;;;;;;;301.20;76.90;;;;;;;;;;5119663;28;20201;-72
2023/01/19 01:40:16;;;;;;;287.98;79.82;;;;;;;;;;5119296;28;20201;-72
2023/01/19 01:42:47;;;;;;;288.20;81.18;;;;;;;;;;5119553;28;20217;-72
2023/01/19 01:45:28;;;;;;;275.90;81.75;;;;;;;;;;5119957;28;20204;-72
2023/01/19 01:47:58;;;;;;;282.55;83.93;;;;;;;;;;5119480;28;20211;-73
2023/01/19 01:50:27;;;;;;;265.75;84.82;;;;;;;;;;5119806;28;20240;-73
2023/01/19 01:52:58;;;;;;;294.23;78.78;;;;;;;;;;5119534;28;20197;-72
2023/01/19 01:55:28;;;;;;;252.90;75.47;;;;;;;;;;5119414;28;20208;-72
2023/01/19 01:57:58;;;;;;;259.65;79.85;;;;;;;;;;5118962;28;20296;-73
2023/01/19 02:00:26;;;;;;;241.90;89.38;;;;;;;;;;5118598;28;20243;-72
2023/01/19 02:02:53;;;;;;;270.40;83.28;;;;;;;;;;5119015;28;20301;-73
2023/01/19 02:05:23;;;;;;;297.20;92.70;;;;;;;;;;5119044;28;20291;-73
2023/01/19 02:13:27;;;;;;;293.65;82.28;;;;;;;;;;5118608;28;20200;-72
2023/01/19 02:15:56;;;;;;;271.02;65.25;;;;;;;;;;5118664;28;20221;-73
2023/01/19 02:18:25;;;;;;;273.35;63.97;;;;;;;;;;5118134;28;20510;-72
2023/01/19 02:20:55;;;;;;;269.17;71.18;;;;;;;;;;5115924;28;20693;-73
2023/01/19 02:23:31;;;;;;;267.20;67.43;;;;;;;;;;5118198;28;20507;-73
2023/01/19 02:26:00;;;;;;;269.63;66.07;;;;;;;;;;5104139;28;20247;-72
2023/01/19 02:28:28;;;;;;;257.58;71.18;;;;;;;;;;5116073;28;20245;-72
2023/01/19 02:30:56;;;;;;;226.38;63.50;;;;;;;;;;5118063;28;20660;-73
2023/01/19 02:33:39;;;;;;;325.02;82.28;;;;;;;;;;5118642;28;20189;-73
2023/01/19 02:36:08;;;;;;;310.52;85.55;;;;;;;;;;5117500;28;20203;-73
2023/01/19 02:38:37;;;;;;;232.15;64.80;;;;;;;;;;5118136;28;20299;-73
2023/01/19 02:41:09;;;;;;;323.75;89.47;;;;;;;;;;5118344;28;20205;-73
2023/01/19 02:43:37;;;;;;;314.50;86.85;;;;;;;;;;5117131;28;20221;-73
2023/01/19 02:46:05;;;;;;;220.57;56.20;;;;;;;;;;5118271;28;20198;-73
2023/01/19 02:48:32;;;;;;;282.75;72.55;;;;;;;;;;5118212;28;20201;-73
2023/01/19 02:51:03;;;;;;;288.20;74.03;;;;;;;;;;5118608;28;20300;-73
2023/01/19 02:53:37;;;;;;;293.52;75.28;;;;;;;;;;5118417;28;20189;-73
2023/01/19 02:56:09;;;;;;;277.90;70.38;;;;;;;;;;5118906;28;20200;-73
2023/01/19 02:58:40;;;;;;;290.73;76.03;;;;;;;;;;5118769;28;20201;-73
2023/01/19 03:01:15;;;;;;;194.43;52.53;;;;;;;;;;5118615;28;20209;-73
2023/01/19 03:03:50;;;;;;;298.50;77.43;;;;;;;;;;5112468;28;20273;-72
2023/01/19 03:06:22;;;;;;;293.52;77.03;;;;;;;;;;5097947;28;20617;-72
2023/01/19 03:08:53;;;;;;;271.33;95.03;;;;;;;;;;5097848;28;20552;-73
2023/01/19 03:11:24;;;;;;;259.02;69.60;;;;;;;;;;5097922;28;20206;-73
2023/01/19 03:13:54;;;;;;;248.50;90.47;;;;;;;;;;5102712;28;20213;-73
2023/01/19 03:16:22;;;;;;;279.60;88.47;;;;;;;;;;5097440;28;20241;-73
2023/01/19 03:18:53;;;;;;;241.02;85.57;;;;;;;;;;5102044;28;20197;-73
2023/01/19 03:21:22;;;;;;;193.18;80.40;;;;;;;;;;5098186;28;20195;-73
2023/01/19 03:23:50;;;;;;;263.55;103.57;;;;;;;;;;5097461;28;20234;-73
2023/01/19 03:26:20;;;;;;;281.25;101.70;;;;;;;;;;5097468;28;20199;-73
2023/01/19 03:28:49;;;;;;;179.13;80.78;;;;;;;;;;5096947;28;20207;-73
2023/01/19 03:31:19;;;;;;;337.98;85.93;;;;;;;;;;5097671;28;20210;-73
2023/01/19 03:33:51;;;;;;;337.98;80.90;;;;;;;;;;5097769;28;20205;-72
2023/01/19 03:36:22;;;;;;;340.42;74.45;;;;;;;;;;5097489;28;20201;-73
2023/01/19 03:38:50;;;;;;;323.50;76.28;;;;;;;;;;5096958;28;20206;-72
2023/01/19 03:41:20;;;;;;;179.85;87.95;;;;;;;;;;5096863;28;20219;-72
2023/01/19 03:43:50;;;;;;;185.27;81.38;;;;;;;;;;5096705;28;20503;-72
2023/01/19 03:46:21;;;;;;;135.13;58.70;;;;;;;;;;5096826;28;20492;-72
2023/01/19 03:48:49;;;;;;;259.55;62.97;;;;;;;;;;5114205;28;20215;-73
2023/01/19 03:51:18;;;;;;;265.40;65.25;;;;;;;;;;5097055;28;20278;-73
2023/01/19 03:53:46;;;;;;;265.63;63.45;;;;;;;;;;5097497;28;20205;-73
2023/01/19 03:56:18;;;;;;;270.13;66.10;;;;;;;;;;5097573;28;20296;-73
2023/01/19 03:58:45;;;;;;;274.00;65.70;;;;;;;;;;5096845;28;20227;-72
2023/01/19 04:01:15;;;;;;;272.45;64.47;;;;;;;;;;5096910;28;20473;-73
2023/01/19 04:03:42;;;;;;;271.42;65.75;;;;;;;;;;5096934;28;20229;-72
2023/01/19 04:06:11;;;;;;;269.05;63.05;;;;;;;;;;5096803;28;20209;-73
2023/01/19 04:08:39;;;;;;;270.25;68.95;;;;;;;;;;5113928;28;20289;-73
2023/01/19 04:11:07;;;;;;;257.70;63.00;;;;;;;;;;5117746;28;20197;-73
2023/01/19 04:13:44;;;;;;;283.00;65.38;;;;;;;;;;5117442;28;20417;-73
2023/01/19 04:16:12;;;;;;;270.67;65.00;;;;;;;;;;5116840;28;20192;-72
2023/01/19 04:18:42;;;;;;;271.02;64.65;;;;;;;;;;5117239;28;20208;-73
2023/01/19 04:21:11;;;;;;;262.05;62.85;;;;;;;;;;5116907;28;20201;-73
2023/01/19 04:23:39;;;;;;;272.92;63.45;;;;;;;;;;5117114;28;20281;-73
2023/01/19 04:26:07;;;;;;;265.55;61.45;;;;;;;;;;5116952;28;20209;-73
2023/01/19 04:28:35;;;;;;;269.27;62.80;;;;;;;;;;5113189;28;20208;-72
2023/01/19 04:31:03;;;;;;;276.52;64.55;;;;;;;;;;5096471;28;20614;-72
2023/01/19 04:33:31;;;;;;;270.08;62.70;;;;;;;;;;5109150;28;20193;-73
2023/01/19 04:36:01;;;;;;;277.85;64.95;;;;;;;;;;5110787;28;20219;-72
2023/01/19 04:38:29;;;;;;;275.17;64.53;;;;;;;;;;5096620;28;20201;-73
2023/01/19 04:40:59;;;;;;;270.88;69.00;;;;;;;;;;5096111;28;20216;-73
2023/01/19 04:43:27;;;;;;;285.38;81.97;;;;;;;;;;5104836;28;20219;-73
2023/01/19 04:45:54;;;;;;;326.92;75.60;;;;;;;;;;5116591;28;20201;-73
2023/01/19 04:48:22;;;;;;;244.70;88.57;;;;;;;;;;5114637;28;20205;-72
2023/01/19 04:50:51;;;;;;;204.90;81.38;;;;;;;;;;5116379;28;20224;-72
2023/01/19 04:53:23;;;;;;;158.00;62.20;;;;;;;;;;5116323;28;20202;-72
2023/01/19 04:55:54;;;;;;;221.50;88.88;;;;;;;;;;5121220;28;20577;-73
2023/01/19 04:58:21;;;;;;;257.95;79.60;;;;;;;;;;5120357;28;20189;-73
2023/01/19 05:00:50;;;;;;;178.48;69.28;;;;;;;;;;5120517;28;20208;-73
2023/01/19 05:03:18;;;;;;;173.82;69.70;;;;;;;;;;5120558;28;20225;-73
2023/01/19 05:05:46;;;;;;;224.57;85.13;;;;;;;;;;5121086;28;20201;-73
2023/01/19 05:08:14;;;;;;;226.80;81.15;;;;;;;;;;5120625;28;20321;-72
2023/01/19 05:10:47;;;;;;;221.55;80.47;;;;;;;;;;5120955;28;20558;-73
2023/01/19 05:13:15;;;;;;;179.93;64.22;;;;;;;;;;5109424;28;20195;-73
2023/01/19 05:15:43;;;;;;;239.93;77.82;;;;;;;;;;5106919;28;20193;-72
2023/01/19 05:18:14;;;;;;;183.68;61.17;;;;;;;;;;5117987;28;20426;-73
2023/01/19 05:20:41;;;;;;;240.98;75.90;;;;;;;;;;5104374;28;20203;-73
2023/01/19 05:23:12;;;;;;;186.95;60.60;;;;;;;;;;5099759;28;20225;-73
2023/01/19 05:25:40;;;;;;;225.82;75.80;;;;;;;;;;5105730;28;20197;-73
2023/01/19 05:28:09;;;;;;;233.80;80.50;;;;;;;;;;5120430;28;20759;-72
2023/01/19 05:30:41;;;;;;;237.80;77.57;;;;;;;;;;5119076;28;20193;-73
2023/01/19 05:33:10;;;;;;;181.68;62.80;;;;;;;;;;5120455;28;20213;-73
2023/01/19 05:35:38;;;;;;;233.25;78.60;;;;;;;;;;5120494;28;20269;-73
2023/01/19 05:38:06;;;;;;;284.17;69.97;;;;;;;;;;5119367;28;20193;-73
2023/01/19 05:40:33;;;;;;;288.13;72.45;;;;;;;;;;5119834;28;20208;-73
2023/01/19 05:43:03;;;;;;;276.83;73.80;;;;;;;;;;5120012;28;20208;-73
2023/01/19 05:45:33;;;;;;;329.60;79.68;;;;;;;;;;5119827;28;20223;-73
2023/01/19 05:48:00;;;;;;;269.10;82.68;;;;;;;;;;5120173;28;20216;-72
2023/01/19 05:50:28;;;;;;;195.75;63.25;;;;;;;;;;5119594;28;20213;-73
2023/01/19 05:52:56;;;;;;;238.15;77.75;;;;;;;;;;5118450;28;20203;-71
2023/01/19 05:55:24;;;;;;;203.20;61.80;;;;;;;;;;5119335;28;20213;-73
2023/01/19 05:57:52;;;;;;;247.55;79.47;;;;;;;;;;5118627;28;20198;-73
2023/01/19 06:00:20;;;;;;;236.10;78.60;;;;;;;;;;5118266;28;20198;-72
2023/01/19 06:02:49;;;;;;;221.93;77.20;;;;;;;;;;5118268;28;20555;-72
2023/01/19 06:05:17;;;;;;;225.13;79.75;;;;;;;;;;5116323;28;20229;-72
2023/01/19 06:07:45;;;;;;;158.00;57.13;;;;;;;;;;5118184;28;20298;-72
2023/01/19 06:10:13;;;;;;;207.23;79.28;;;;;;;;;;5119020;28;20208;-72
2023/01/19 06:12:40;;;;;;;163.40;63.15;;;;;;;;;;5118344;28;20208;-72
2023/01/19 06:15:09;;;;;;;188.52;76.07;;;;;;;;;;5118615;28;20229;-72
2023/01/19 06:17:36;;;;;;;151.20;62.30;;;;;;;;;;5118092;28;20227;-72
2023/01/19 06:20:06;;;;;;;206.57;76.40;;;;;;;;;;5118731;28;20250;-72
2023/01/19 06:22:34;;;;;;;165.30;64.18;;;;;;;;;;5116733;28;20227;-72
2023/01/19 06:25:02;;;;;;;166.05;64.90;;;;;;;;;;5116651;28;20245;-73
2023/01/19 06:27:30;;;;;;;169.45;61.25;;;;;;;;;;5117232;28;20205;-73
2023/01/19 06:30:07;;;;;;;266.23;67.97;;;;;;;;;;5117392;28;20697;-72
2023/01/19 06:32:35;;;;;;;270.95;66.63;;;;;;;;;;5117180;28;20204;-72
2023/01/19 06:35:02;;;;;;;249.93;62.45;;;;;;;;;;5116710;28;20315;-72
2023/01/19 06:37:33;;;;;;;255.55;66.70;;;;;;;;;;5096500;28;20209;-72
2023/01/19 06:40:01;;;;;;;256.33;65.32;;;;;;;;;;5096086;28;20304;-73
2023/01/19 06:42:29;;;;;;;253.27;62.10;;;;;;;;;;5095820;28;20278;-72
2023/01/19 06:44:56;;;;;;;272.88;66.65;;;;;;;;;;5105555;28;20225;-72
2023/01/19 06:47:29;;;;;;;271.13;65.45;;;;;;;;;;5117060;28;20193;-72
2023/01/19 06:50:08;;;;;;;269.05;65.53;;;;;;;;;;5109756;28;20197;-72
2023/01/19 06:52:41;;;;;;;271.75;66.85;;;;;;;;;;5116164;28;20254;-72
2023/01/19 06:55:11;;;;;;;270.30;66.35;;;;;;;;;;5115950;28;20189;-73
2023/01/19 06:57:39;;;;;;;267.17;64.35;;;;;;;;;;5116141;28;20227;-71
2023/01/19 07:00:08;;;;;;;273.98;67.53;;;;;;;;;;5115774;28;20597;-72
2023/01/19 07:02:35;;;;;;;281.48;67.88;;;;;;;;;;5117495;28;20266;-71
2023/01/19 07:05:05;;;;;;;285.60;68.22;;;;;;;;;;5117059;28;20328;-73
2023/01/19 07:07:33;;;;;;;279.60;69.50;;;;;;;;;;5116956;28;20208;-73
2023/01/19 07:10:06;;;;;;;266.98;62.78;;;;;;;;;;5115802;28;20205;-73
2023/01/19 07:12:34;;;;;;;272.25;64.88;;;;;;;;;;5117204;28;20201;-73
2023/01/19 07:15:04;;;;;;;269.75;65.75;;;;;;;;;;5115073;28;20250;-73
2023/01/19 07:17:34;;;;;;;280.63;71.88;;;;;;;;;;5114537;28;20266;-73
2023/01/19 07:20:03;;;;;;;285.85;69.40;;;;;;;;;;5116498;28;20205;-71
2023/01/19 07:22:30;;;;;;;278.65;67.03;;;;;;;;;;5116838;28;20299;-72
2023/01/19 07:25:00;;;;;;;283.65;67.85;;;;;;;;;;5115022;28;20217;-72
2023/01/19 07:27:32;;;;;;;279.30;66.80;;;;;;;;;;5114804;28;20212;-73
2023/01/19 07:30:00;;;;;;;275.67;65.20;;;;;;;;;;5107610;28;20197;-73
2023/01/19 07:32:28;;;;;;;279.45;67.63;;;;;;;;;;5115708;28;20204;-72
2023/01/19 07:34:56;;;;;;;289.25;68.63;;;;;;;;;;5111567;28;20205;-72
2023/01/19 07:37:32;;;;;;;297.80;69.70;;;;;;;;;;5114234;28;20204;-72
2023/01/19 07:40:00;;;;;;;291.75;72.22;;;;;;;;;;5116007;28;20234;-72
2023/01/19 07:42:28;;;;;;;294.45;67.72;;;;;;;;;;5116406;28;20201;-73
2023/01/19 07:44:57;;;;;;;289.38;71.10;;;;;;;;;;5108328;28;20222;-72
2023/01/19 07:47:25;;;;;;;299.17;73.93;;;;;;;;;;5099548;28;20721;-73
2023/01/19 07:49:52;;;;;;;300.45;72.60;;;;;;;;;;5116807;28;20201;-73
2023/01/19 07:52:28;;;;;;;289.65;69.90;;;;;;;;;;5114511;28;20203;-73
2023/01/19 07:54:59;;;;;;;299.55;71.60;;;;;;;;;;5113734;28;20197;-72
2023/01/19 07:57:30;;;;;;;305.00;75.53;;;;;;;;;;5112776;28;20288;-73
2023/01/19 08:00:08;;;;;;;289.48;67.75;;;;;;;;;;5112998;28;20200;-73
2023/01/19 08:02:39;;;;;;;292.52;72.05;;;;;;;;;;5110410;28;20197;-72
2023/01/19 08:05:08;;;;;;;292.50;69.70;;;;;;;;;;5111809;28;20705;-74
2023/01/19 08:07:45;;;;;;;287.60;73.20;;;;;;;;;;5109445;28;20608;-73
2023/01/19 08:10:24;;;;;;;278.02;68.03;;;;;;;;;;5110335;28;20531;-72
2023/01/19 08:12:58;;;;;;;295.52;76.07;;;;;;;;;;5107822;28;20215;-72
2023/01/19 08:15:38;;;;;;;289.70;72.45;;;;;;;;;;5106236;28;20196;-72
2023/01/19 08:18:19;;;;;;;288.42;77.93;;;;;;;;;;5108266;28;20200;-73
2023/01/19 08:20:52;;;;;;;286.20;74.68;;;;;;;;;;5106362;28;20509;-73
2023/01/19 08:23:37;;;;;;;271.25;69.18;;;;;;;;;;5113289;28;20594;-73
2023/01/19 08:26:26;;;;;;;282.58;74.97;;;;;;;;;;5109863;28;20217;-72
2023/01/19 08:29:12;;;;;;;284.70;69.72;;;;;;;;;;5107361;28;20205;-73
2023/01/19 08:32:12;;;;;;;281.02;70.20;;;;;;;;;;5097196;28;20205;-74
2023/01/19 08:34:52;;;;;;;281.08;72.15;;;;;;;;;;5113545;28;20241;-73
2023/01/19 08:37:26;;;;;;;282.23;75.47;;;;;;;;;;5115661;28;20200;-73
2023/01/19 08:43:15;;;;;;;304.65;89.85;;;;;;;;;;5087836;28;20214;-72
2023/01/19 08:45:48;;;;;;;297.20;94.50;;;;;;;;;;5085003;28;20225;-74
2023/01/19 08:48:19;;;;;;;295.77;90.35;;;;;;;;;;5080252;28;20201;-73
2023/01/19 08:50:50;;;;;;;323.52;96.53;;;;;;;;;;5087123;28;20242;-74
2023/01/19 08:53:24;;;;;;;312.27;82.50;;;;;;;;;;5090454;28;20221;-73
2023/01/19 08:55:56;;;;;;;226.13;65.75;;;;;;;;;;5093130;28;20198;-73
2023/01/19 09:01:27;;;;;;;223.63;63.45;;;;;;;;;;5085151;28;20218;-73
2023/01/19 09:04:12;;;;;;;284.42;84.88;;;;;;;;;;5077321;28;20206;-73
2023/01/19 09:07:01;;;;;;;289.20;83.97;;;;;;;;;;5085907;28;20263;-73
2023/01/19 09:09:42;;;;;;;288.25;79.72;;;;;;;;;;5090584;28;20190;-73
2023/01/19 09:12:26;;;;;;;304.95;85.10;;;;;;;;;;5093160;28;20207;-74
2023/01/19 09:17:39;;;;;;;283.85;85.15;;;;;;;;;;5086118;28;20205;-73
2023/01/19 09:20:18;;;;;;;277.48;82.55;;;;;;;;;;5088973;28;20205;-73
2023/01/19 09:22:51;;;;;;;300.25;85.97;;;;;;;;;;5088969;28;20197;-73
2023/01/19 09:25:22;;;;;;;224.20;65.03;;;;;;;;;;5087257;28;20222;-73
2023/01/19 09:27:54;;;;;;;285.85;78.65;;;;;;;;;;5082219;28;20208;-72
2023/01/19 09:30:45;;;;;;;277.60;83.15;;;;;;;;;;5080439;28;20202;-75
2023/01/19 09:33:14;;;;;;;208.05;71.28;;;;;;;;;;5082875;28;20199;-74
2023/01/19 09:35:48;;;;;;;275.88;88.00;;;;;;;;;;5091042;28;20195;-73
2023/01/19 09:38:22;;;;;;;263.95;79.45;;;;;;;;;;5086690;28;20210;-74
2023/01/19 09:40:51;;;;;;;289.77;85.28;;;;;;;;;;5086701;28;20199;-74
2023/01/19 09:43:22;;;;;;;277.77;85.97;;;;;;;;;;5096441;28;20215;-74
2023/01/19 09:45:55;;;;;;;274.55;81.93;;;;;;;;;;5093164;28;20218;-74
2023/01/19 09:48:27;;;;;;;263.20;83.95;;;;;;;;;;5090667;28;20603;-73
2023/01/19 09:50:59;;;;;;;262.10;83.07;;;;;;;;;;5096810;28;20203;-73
2023/01/19 09:53:36;;;;;;;205.45;70.28;;;;;;;;;;5082919;28;20210;-72
2023/01/19 09:56:07;;;;;;;268.20;88.00;;;;;;;;;;5089919;28;20198;-74
2023/01/19 09:58:35;;;;;;;210.18;72.15;;;;;;;;;;5093228;28;20202;-73
2023/01/19 10:03:55;;;;;;;291.00;86.93;;;;;;;;;;5083486;28;20210;-73
2023/01/19 10:06:27;;;;;;;291.25;87.05;;;;;;;;;;5085775;28;20300;-72
2023/01/19 10:08:58;;;;;;;273.25;89.57;;;;;;;;;;5093577;28;20206;-74
2023/01/19 10:11:31;;;;;;;276.48;87.03;;;;;;;;;;5098506;28;20217;-74
2023/01/19 10:14:00;;;;;;;261.55;80.68;;;;;;;;;;5093548;28;20215;-73
2023/01/19 10:16:36;;;;;;;264.25;87.78;;;;;;;;;;5093423;28;20563;-74
2023/01/19 10:19:13;;;;;;;269.25;84.10;;;;;;;;;;5090633;28;20202;-72
2023/01/19 10:21:52;;;;;;;209.57;69.22;;;;;;;;;;5095292;28;20864;-72
2023/01/19 10:24:22;;;;;;;262.33;85.10;;;;;;;;;;5093905;28;20223;-72
2023/01/19 10:26:53;;;;;;;250.77;82.95;;;;;;;;;;5087882;28;20210;-73
2023/01/19 10:29:25;;;;;;;203.93;66.05;;;;;;;;;;5086832;28;20631;-73
2023/01/19 10:31:55;;;;;;;211.73;66.22;;;;;;;;;;5092003;28;20202;-73
2023/01/19 10:34:23;;;;;;;265.67;81.93;;;;;;;;;;5094308;28;20198;-73
2023/01/19 10:36:57;;;;;;;255.48;86.05;;;;;;;;;;5091271;28;20234;-73
2023/01/19 10:39:29;;;;;;;252.85;84.45;;;;;;;;;;5095606;28;20204;-73
2023/01/19 10:42:05;;;;;;;273.58;86.65;;;;;;;;;;5094755;28;20313;-74
2023/01/19 10:44:36;;;;;;;200.13;68.10;;;;;;;;;;5086351;28;20418;-75
2023/01/19 10:47:05;;;;;;;199.35;66.05;;;;;;;;;;5093304;28;20202;-73
2023/01/19 10:49:38;;;;;;;208.07;70.70;;;;;;;;;;5093893;28;20222;-73
2023/01/19 10:52:27;;;;;;;266.17;85.93;;;;;;;;;;5084917;28;20238;-73
2023/01/19 10:55:00;;;;;;;263.95;86.22;;;;;;;;;;5097281;28;20203;-74
2023/01/19 10:57:54;;;;;;;256.10;84.28;;;;;;;;;;5096595;28;20262;-74
2023/01/19 11:00:44;;;;;;;253.20;85.03;;;;;;;;;;5086542;28;20250;-74
2023/01/19 11:03:23;;;;;;;263.33;91.53;;;;;;;;;;5075789;28;20468;-73
2023/01/19 11:05:51;;;;;;;251.65;85.60;;;;;;;;;;5087641;28;20488;-74
2023/01/19 11:08:30;;;;;;;204.77;74.22;;;;;;;;;;5085757;28;20202;-74
2023/01/19 11:11:01;;;;;;;271.92;85.18;;;;;;;;;;5092509;28;20219;-74
2023/01/19 11:13:28;;;;;;;266.38;93.38;;;;;;;;;;5090705;28;20465;-74
2023/01/19 11:15:58;;;;;;;265.05;89.47;;;;;;;;;;5090409;28;20520;-74
2023/01/19 11:18:31;;;;;;;305.73;110.03;;;;;;;;;;5092486;28;20191;-74
2023/01/19 11:21:05;;;;;;;272.17;89.65;;;;;;;;;;5093454;28;20227;-73
2023/01/19 11:23:46;;;;;;;264.10;88.35;;;;;;;;;;5085980;28;20280;-73
2023/01/19 11:26:16;;;;;;;246.35;83.75;;;;;;;;;;5090493;28;20213;-74
2023/01/19 11:28:55;;;;;;;275.70;96.43;;;;;;;;;;5088618;28;20221;-75
2023/01/19 11:32:10;;;;;;;237.90;82.60;;;;;;;;;;5090093;28;20210;-74
2023/01/19 11:34:54;;;;;;;243.43;84.63;;;;;;;;;;5091942;28;20208;-73
2023/01/19 11:37:33;;;;;;;253.57;95.60;;;;;;;;;;5091198;28;20203;-74
2023/01/19 11:40:05;;;;;;;235.73;91.18;;;;;;;;;;5095233;28;20202;-73
2023/01/19 11:42:36;;;;;;;234.10;84.95;;;;;;;;;;5095157;28;20198;-73
2023/01/19 11:45:14;;;;;;;254.27;86.35;;;;;;;;;;5093772;28;20217;-73
2023/01/19 11:47:48;;;;;;;262.92;85.60;;;;;;;;;;5094447;28;20202;-72
2023/01/19 11:50:21;;;;;;;269.15;91.22;;;;;;;;;;5096649;28;20202;-74
2023/01/19 11:53:08;;;;;;;243.20;81.82;;;;;;;;;;5092265;28;20267;-73
2023/01/19 11:55:48;;;;;;;237.75;89.45;;;;;;;;;;5079612;28;20205;-73
2023/01/19 11:58:17;;;;;;;186.98;71.95;;;;;;;;;;5083599;28;20206;-73
2023/01/19 12:00:47;;;;;;;194.68;76.75;;;;;;;;;;5094627;28;20290;-74
2023/01/19 12:03:18;;;;;;;254.48;96.45;;;;;;;;;;5092763;28;20656;-74
2023/01/19 12:05:48;;;;;;;280.30;98.47;;;;;;;;;;5088379;28;20228;-72
2023/01/19 12:08:22;;;;;;;274.20;93.75;;;;;;;;;;5087809;28;20232;-75
2023/01/19 12:10:52;;;;;;;200.02;74.20;;;;;;;;;;5085137;28;20296;-74
2023/01/19 12:13:22;;;;;;;247.27;86.38;;;;;;;;;;5094913;28;20232;-75
2023/01/19 12:15:52;;;;;;;252.63;89.32;;;;;;;;;;5094740;28;20292;-74
2023/01/19 12:18:27;;;;;;;242.77;89.20;;;;;;;;;;5093413;28;20208;-74
2023/01/19 12:20:55;;;;;;;244.07;83.28;;;;;;;;;;5091514;28;20200;-74
2023/01/19 12:23:31;;;;;;;191.23;69.10;;;;;;;;;;5091385;28;20197;-73
2023/01/19 12:26:13;;;;;;;241.50;84.50;;;;;;;;;;5090468;28;20222;-73
2023/01/19 12:28:49;;;;;;;235.45;81.63;;;;;;;;;;5079730;28;20205;-74
2023/01/19 12:31:24;;;;;;;239.60;84.00;;;;;;;;;;5089132;28;20210;-74
2023/01/19 12:33:57;;;;;;;247.88;88.88;;;;;;;;;;5086631;28;20593;-75
2023/01/19 12:36:38;;;;;;;186.10;66.25;;;;;;;;;;5092000;28;20257;-74
2023/01/19 12:39:26;;;;;;;241.27;86.20;;;;;;;;;;5090545;28;20202;-75
2023/01/19 12:42:07;;;;;;;232.93;84.43;;;;;;;;;;5072700;28;20210;-74
2023/01/19 12:44:38;;;;;;;236.38;81.82;;;;;;;;;;5078064;28;20196;-74
2023/01/19 12:47:21;;;;;;;237.90;82.60;;;;;;;;;;5089451;28;20219;-74
2023/01/19 12:49:50;;;;;;;176.32;65.72;;;;;;;;;;5084259;28;20292;-74
2023/01/19 12:52:26;;;;;;;241.40;90.47;;;;;;;;;;5087400;28;20229;-74
2023/01/19 12:55:06;;;;;;;297.55;93.68;;;;;;;;;;5076626;28;20205;-74
2023/01/19 12:57:41;;;;;;;267.70;90.80;;;;;;;;;;5085735;28;20189;-74
2023/01/19 13:00:28;;;;;;;295.80;78.63;;;;;;;;;;5085755;28;20703;-74
2023/01/19 13:03:01;;;;;;;272.15;82.32;;;;;;;;;;5091305;28;20614;-73
2023/01/19 13:08:47;;;;;;;258.02;87.82;;;;;;;;;;5083443;28;20202;-74
2023/01/19 13:11:29;;;;;;;256.42;92.28;;;;;;;;;;5063101;28;20708;-74
2023/01/19 13:14:35;;;;;;;199.60;71.68;;;;;;;;;;5073358;28;20221;-75
2023/01/19 13:17:34;;;;;;;180.57;68.18;;;;;;;;;;5029093;28;20192;-73
2023/01/19 13:20:37;;;;;;;243.45;86.78;;;;;;;;;;5092822;28;20201;-72
2023/01/19 13:23:19;;;;;;;229.63;82.32;;;;;;;;;;5097855;28;20602;-74
2023/01/19 13:25:54;;;;;;;231.88;86.28;;;;;;;;;;5098467;28;20617;-74
2023/01/19 13:28:37;;;;;;;235.82;86.60;;;;;;;;;;5087914;28;20203;-73
2023/01/19 13:31:06;;;;;;;229.02;84.88;;;;;;;;;;5083677;28;20460;-74
2023/01/19 13:33:38;;;;;;;228.50;80.40;;;;;;;;;;5087100;28;20266;-74
2023/01/19 13:36:16;;;;;;;239.30;87.43;;;;;;;;;;5086980;28;20483;-72
2023/01/19 13:38:44;;;;;;;189.98;69.18;;;;;;;;;;5088394;28;20552;-74
2023/01/19 13:41:23;;;;;;;236.90;85.13;;;;;;;;;;5088767;28;20271;-73
2023/01/19 13:47:16;;;;;;;220.98;80.70;;;;;;;;;;5086900;28;20239;-73
2023/01/19 13:49:54;;;;;;;225.02;81.35;;;;;;;;;;5092757;28;20198;-74
2023/01/19 13:52:24;;;;;;;230.98;87.00;;;;;;;;;;5082765;28;20194;-75
2023/01/19 13:54:57;;;;;;;235.20;88.78;;;;;;;;;;5087428;28;20194;-73
2023/01/19 13:57:31;;;;;;;224.10;83.72;;;;;;;;;;5086478;28;20478;-74
2023/01/19 14:00:07;;;;;;;225.05;84.15;;;;;;;;;;5088211;28;20303;-74
2023/01/19 14:02:36;;;;;;;259.92;92.47;;;;;;;;;;5082052;28;20728;-73
2023/01/19 14:05:19;;;;;;;237.00;84.25;;;;;;;;;;5088431;28;20556;-73
2023/01/19 14:08:11;;;;;;;234.93;85.00;;;;;;;;;;5096482;28;20276;-75
2023/01/19 14:10:44;;;;;;;191.02;72.07;;;;;;;;;;5076187;28;20207;-73
2023/01/19 14:13:22;;;;;;;179.02;66.30;;;;;;;;;;5090003;28;20286;-74
2023/01/19 14:15:55;;;;;;;261.33;99.30;;;;;;;;;;5096411;28;20318;-74
2023/01/19 14:18:27;;;;;;;233.30;84.25;;;;;;;;;;5094352;28;20474;-73
2023/01/19 14:20:56;;;;;;;228.25;83.03;;;;;;;;;;5088295;28;20197;-73
2023/01/19 14:23:45;;;;;;;229.65;83.15;;;;;;;;;;5095732;28;20194;-74
2023/01/19 14:26:43;;;;;;;219.60;80.18;;;;;;;;;;5082017;28;20218;-74
2023/01/19 14:29:23;;;;;;;221.07;88.93;;;;;;;;;;5088304;28;20190;-73
2023/01/19 14:32:02;;;;;;;169.73;68.22;;;;;;;;;;5095063;28;20190;-74
2023/01/19 14:34:30;;;;;;;224.35;85.60;;;;;;;;;;5087911;28;20205;-73
2023/01/19 14:37:06;;;;;;;227.60;88.00;;;;;;;;;;5085419;28;20205;-73
2023/01/19 14:39:35;;;;;;;231.60;88.30;;;;;;;;;;5080706;28;20198;-75
2023/01/19 14:42:20;;;;;;;243.35;90.13;;;;;;;;;;5083059;28;20203;-74
2023/01/19 14:44:54;;;;;;;233.95;87.00;;;;;;;;;;5084709;28;20416;-73
2023/01/19 14:47:29;;;;;;;222.07;84.75;;;;;;;;;;5089727;28;20226;-74
2023/01/19 14:49:59;;;;;;;238.23;89.53;;;;;;;;;;5083600;28;20215;-75
2023/01/19 14:52:42;;;;;;;227.18;88.05;;;;;;;;;;5089264;28;20217;-75
2023/01/19 14:58:11;;;;;;;224.05;89.07;;;;;;;;;;5086554;28;20203;-74
2023/01/19 15:00:48;;;;;;;180.10;71.55;;;;;;;;;;5085535;28;20228;-74